Time;durP1;ratioP1;P1;durP2;ratioP2;P2;SDS_P1;SDS_P2;PMS_P1;PMS_P2;Temp;Humidity;BMP_temperature;BMP_pressure;BME280_temperature;BME280_humidity;BME280_pressure;Samples;Min_cycle;Max_cycle;Signal;HPM_P1;HPM_P2
2021/12/15 00:03:15;;;;;;;;;;;;;;;9.07;94.51563;102855.9;;;;-86
2021/12/15 00:08:14;;;;;;;;;;;;;;;9.07;94.49121;102852.8;;;;-87
2021/12/15 00:13:12;;;;;;;;;;;;;;;9.07;94.54785;102853.3;;;;-88
2021/12/15 00:18:09;;;;;;;;;;;;;;;9.07;94.44922;102846.3;;;;-88
2021/12/15 00:23:18;;;;;;;;;;;;;;;9.08;94.39648;102843.6;;;;-89
2021/12/15 00:28:21;;;;;;;;;;;;;;;9.08;94.44238;102846.3;;;;-89
2021/12/15 00:29:59;;;;;;;24.3;10.2;;;;;;;;;;;;;-88
2021/12/15 00:33:12;;;;;;;;;;;;;;;9.07;94.47168;102852.8;;;;-88
2021/12/15 00:38:22;;;;;;;;;;;;;;;9.08;94.41797;102848.8;;;;-87
2021/12/15 00:43:22;;;;;;;;;;;;;;;9.07;94.33984;102849.2;;;;-89
2021/12/15 00:48:19;;;;;;;;;;;;;;;9.07;94.38184;102851.9;;;;-89
2021/12/15 00:53:12;;;;;;;;;;;;;;;9.06;94.34863;102851.1;;;;-89
2021/12/15 00:58:10;;;;;;;;;;;;;;;9.06;94.32617;102850.1;;;;-89
2021/12/15 01:00:03;;;;;;;28.3;10.2;;;;;;;;;;;;;-88
2021/12/15 01:03:18;;;;;;;;;;;;;;;9.06;94.35938;102847.5;;;;-89
2021/12/15 01:08:17;;;;;;;;;;;;;;;9.05;94.36816;102843;;;;-86
2021/12/15 01:23:13;;;;;;;;;;;;;;;9.04;94.35547;102842.4;;;;-86
2021/12/15 01:28:11;;;;;;;;;;;;;;;9.04;94.33398;102849.2;;;;-87
2021/12/15 01:29:48;;;;;;;23.1;9.6;;;;;;;;;;;;;-87
2021/12/15 01:33:09;;;;;;;;;;;;;;;9.04;94.26563;102856;;;;-87
2021/12/15 01:38:11;;;;;;;;;;;;;;;9.04;94.26563;102854.6;;;;-86
2021/12/15 01:43:15;;;;;;;;;;;;;;;9.04;94.34277;102853.1;;;;-87
2021/12/15 01:48:10;;;;;;;;;;;;;;;9.03;94.33203;102853.8;;;;-86
2021/12/15 01:53:11;;;;;;;;;;;;;;;9.03;94.37598;102857.9;;;;-85
2021/12/15 01:58:10;;;;;;;;;;;;;;;9.02;94.30762;102861.3;;;;-86
2021/12/15 01:59:54;;;;;;;21.8;9.2;;;;;;;;;;;;;-86
2021/12/15 02:03:10;;;;;;;;;;;;;;;9.02;94.29688;102867.6;;;;-86
2021/12/15 02:08:19;;;;;;;;;;;;;;;9.02;94.29688;102868.5;;;;-86
2021/12/15 02:13:15;;;;;;;;;;;;;;;9.02;94.21973;102874.3;;;;-85
2021/12/15 02:18:12;;;;;;;;;;;;;;;9.03;94.25488;102881.7;;;;-86
2021/12/15 02:23:13;;;;;;;;;;;;;;;9.03;94.2334;102881.7;;;;-85
2021/12/15 02:28:10;;;;;;;;;;;;;;;9.04;94.2002;102872.8;;;;-84
2021/12/15 02:29:59;;;;;;;24.5;9.3;;;;;;;;;;;;;-86
2021/12/15 02:33:34;;;;;;;;;;;;;;;9.03;94.15625;102883.4;;;;-86
2021/12/15 02:38:09;;;;;;;;;;;;;;;9.03;94.14551;102884.5;;;;-86
2021/12/15 02:43:11;;;;;;;;;;;;;;;9.04;94.2334;102887.8;;;;-85
2021/12/15 02:48:10;;;;;;;;;;;;;;;9.04;94.20215;102887.1;;;;-86
2021/12/15 02:53:14;;;;;;;;;;;;;;;9.05;94.25879;102888.3;;;;-85
2021/12/15 02:58:12;;;;;;;;;;;;;;;9.04;94.2334;102889.7;;;;-86
2021/12/15 02:59:57;;;;;;;28.6;9.3;;;;;;;;;;;;;-86
2021/12/15 03:08:15;;;;;;;;;;;;;;;9.05;94.2373;102889.7;;;;-86
2021/12/15 03:18:12;;;;;;;;;;;;;;;9.04;94.27832;102884.3;;;;-86
2021/12/15 03:23:11;;;;;;;;;;;;;;;9.04;94.19141;102881.9;;;;-87
2021/12/15 03:38:10;;;;;;;;;;;;;;;9.06;94.17285;102890.7;;;;-86
2021/12/15 03:43:15;;;;;;;;;;;;;;;9.06;94.23926;102891.6;;;;-85
2021/12/15 03:48:14;;;;;;;;;;;;;;;9.06;94.17285;102898.9;;;;-85
2021/12/15 03:53:15;;;;;;;;;;;;;;;9.06;94.20605;102900.2;;;;-86
2021/12/15 03:58:16;;;;;;;;;;;;;;;9.07;94.23926;102897.6;;;;-85
2021/12/15 03:59:51;;;;;;;24.1;9.8;;;;;;;;;;;;;-85
2021/12/15 04:03:25;;;;;;;;;;;;;;;9.07;94.10938;102901.5;;;;-86
2021/12/15 04:08:10;;;;;;;;;;;;;;;9.09;94.14551;102902.2;;;;-85
2021/12/15 04:13:13;;;;;;;;;;;;;;;9.09;94.21191;102899.9;;;;-86
2021/12/15 04:18:15;;;;;;;;;;;;;;;9.1;94.2793;102906.3;;;;-86
2021/12/15 04:23:10;;;;;;;;;;;;;;;9.1;94.22461;102907.6;;;;-86
2021/12/15 04:28:16;;;;;;;;;;;;;;;9.11;94.20508;102907.3;;;;-86
2021/12/15 04:29:49;;;;;;;25.6;10;;;;;;;;;;;;;-85
2021/12/15 04:33:14;;;;;;;;;;;;;;;9.11;94.2373;102908.3;;;;-86
2021/12/15 04:38:17;;;;;;;;;;;;;;;9.11;94.29395;102912.6;;;;-86
2021/12/15 04:43:14;;;;;;;;;;;;;;;9.11;94.25098;102915.4;;;;-86
2021/12/15 04:48:14;;;;;;;;;;;;;;;9.11;94.21777;102915.9;;;;-86
2021/12/15 04:53:17;;;;;;;;;;;;;;;9.11;94.18457;102914.3;;;;-86
2021/12/15 04:58:21;;;;;;;;;;;;;;;9.12;94.25098;102916.3;;;;-86
2021/12/15 04:59:56;;;;;;;24.4;9.9;;;;;;;;;;;;;-86
2021/12/15 05:03:10;;;;;;;;;;;;;;;9.12;94.17383;102922.4;;;;-86
2021/12/15 05:08:14;;;;;;;;;;;;;;;9.11;94.20703;102927.8;;;;-86
2021/12/15 05:13:10;;;;;;;;;;;;;;;9.11;94.22656;102922.3;;;;-87
2021/12/15 05:18:20;;;;;;;;;;;;;;;9.1;94.29102;102918.4;;;;-85
2021/12/15 05:23:18;;;;;;;;;;;;;;;9.09;94.24707;102921;;;;-86
2021/12/15 05:28:23;;;;;;;;;;;;;;;9.08;94.27734;102928.9;;;;-86
2021/12/15 05:33:21;;;;;;;;;;;;;;;9.08;94.27539;102922.8;;;;-87
2021/12/15 05:38:12;;;;;;;;;;;;;;;9.07;94.24023;102920;;;;-85
2021/12/15 05:43:12;;;;;;;;;;;;;;;9.07;94.25;102934.5;;;;-84
2021/12/15 05:48:13;;;;;;;;;;;;;;;9.06;94.23926;102930.3;;;;-86
2021/12/15 05:53:15;;;;;;;;;;;;;;;9.05;94.21484;102936.5;;;;-85
2021/12/15 05:58:12;;;;;;;;;;;;;;;9.05;94.2041;102935.1;;;;-86
2021/12/15 05:59:53;;;;;;;23.4;8.8;;;;;;;;;;;;;-85
2021/12/15 06:03:14;;;;;;;;;;;;;;;9.04;94.16895;102931;;;;-86
2021/12/15 06:08:23;;;;;;;;;;;;;;;9.04;94.125;102935.4;;;;-85
2021/12/15 06:13:22;;;;;;;;;;;;;;;9.04;94.10352;102941.2;;;;-85
2021/12/15 06:18:21;;;;;;;;;;;;;;;9.03;94.2002;102943.7;;;;-86
2021/12/15 06:28:15;;;;;;;;;;;;;;;9.02;94.12988;102952;;;;-86
2021/12/15 06:29:50;;;;;;;25.6;8.6;;;;;;;;;;;;;-85
2021/12/15 06:33:15;;;;;;;;;;;;;;;9.01;94.1416;102956.7;;;;-84
2021/12/15 06:38:18;;;;;;;;;;;;;;;9.01;94.1416;102960.7;;;;-86
2021/12/15 06:43:09;;;;;;;;;;;;;;;9.01;94.03125;102955.9;;;;-86
2021/12/15 06:58:23;;;;;;;;;;;;;;;9.03;94.10156;102978;;;;-86
2021/12/15 06:59:58;;;;;;;22.8;9.1;;;;;;;;;;;;;-86
2021/12/15 07:03:24;;;;;;;;;;;;;;;9.03;94.17773;102982.3;;;;-85
2021/12/15 07:08:22;;;;;;;;;;;;;;;9.03;94.2002;102987.3;;;;-87
2021/12/15 07:13:16;;;;;;;;;;;;;;;9.03;94.16699;102984;;;;-86
2021/12/15 07:18:26;;;;;;;;;;;;;;;9.03;94.26563;102987.1;;;;-87
2021/12/15 07:23:18;;;;;;;;;;;;;;;9.03;94.16699;102982.2;;;;-86
2021/12/15 07:28:14;;;;;;;;;;;;;;;9.04;94.2334;102984.8;;;;-86
2021/12/15 07:29:52;;;;;;;26.2;9.3;;;;;;;;;;;;;-86
2021/12/15 07:33:18;;;;;;;;;;;;;;;9.04;94.13379;102985.9;;;;-87
2021/12/15 07:38:22;;;;;;;;;;;;;;;9.04;94.2002;102987.2;;;;-86
2021/12/15 07:48:28;;;;;;;;;;;;;;;9.04;94.16699;102985.3;;;;-86
2021/12/15 07:53:32;;;;;;;;;;;;;;;9.04;94.25488;102989.5;;;;-86
2021/12/15 07:58:18;;;;;;;;;;;;;;;9.04;94.27832;102999.7;;;;-87
2021/12/15 08:00:06;;;;;;;22.3;9.2;;;;;;;;;;;;;-86
2021/12/15 08:08:15;;;;;;;;;;;;;;;9.04;94.21094;103012.2;;;;-86
2021/12/15 08:13:15;;;;;;;;;;;;;;;9.04;94.13574;103005.9;;;;-87
2021/12/15 08:18:09;;;;;;;;;;;;;;;9.03;94.12305;103004;;;;-87
2021/12/15 08:23:13;;;;;;;;;;;;;;;9.02;94.11914;103012;;;;-87
2021/12/15 08:28:21;;;;;;;;;;;;;;;9;94.04004;103008.7;;;;-86
2021/12/15 08:29:54;;;;;;;20.1;8.3;;;;;;;;;;;;;-87
2021/12/15 08:33:16;;;;;;;;;;;;;;;8.99;93.9043;103010.6;;;;-87
2021/12/15 08:38:10;;;;;;;;;;;;;;;8.97;93.79102;103009.8;;;;-87
2021/12/15 08:43:20;;;;;;;;;;;;;;;8.96;93.64648;103016.4;;;;-87
2021/12/15 08:48:20;;;;;;;;;;;;;;;8.93;93.61816;103015.4;;;;-88
2021/12/15 08:53:18;;;;;;;;;;;;;;;8.91;93.55957;103013.8;;;;-85
2021/12/15 08:58:16;;;;;;;;;;;;;;;8.91;93.54688;103020.1;;;;-86
2021/12/15 08:59:50;;;;;;;23.4;8.2;;;;;;;;;;;;;-85
2021/12/15 09:03:10;;;;;;;;;;;;;;;8.91;93.75684;103030.3;;;;-85
2021/12/15 09:08:11;;;;;;;;;;;;;;;8.95;93.82031;103043.2;;;;-85
2021/12/15 09:13:15;;;;;;;;;;;;;;;8.98;93.8584;103038;;;;-86
2021/12/15 09:18:12;;;;;;;;;;;;;;;9.02;93.85547;103045.6;;;;-86
2021/12/15 09:23:10;;;;;;;;;;;;;;;9.04;93.84863;103046.8;;;;-85
2021/12/15 09:28:11;;;;;;;;;;;;;;;9.06;93.89844;103044.6;;;;-85
2021/12/15 09:29:49;;;;;;;20.2;6.4;;;;;;;;;;;;;-85
2021/12/15 09:33:13;;;;;;;;;;;;;;;9.09;93.85156;103050.6;;;;-85
2021/12/15 09:38:19;;;;;;;;;;;;;;;9.13;93.83691;103054.8;;;;-85
2021/12/15 09:43:15;;;;;;;;;;;;;;;9.16;93.84277;103058.2;;;;-85
2021/12/15 10:03:18;;;;;;;;;;;;;;;9.34;93.54004;103078.1;;;;-86
2021/12/15 10:18:28;;;;;;;;;;;;;;;9.42;93.37207;103086.1;;;;-85
2021/12/15 10:23:23;;;;;;;;;;;;;;;9.45;93.2793;103084.1;;;;-86
2021/12/15 10:28:12;;;;;;;;;;;;;;;9.49;93.16602;103085.9;;;;-86
2021/12/15 10:30:03;;;;;;;15.2;3.7;;;;;;;;;;;;;-86
2021/12/15 10:33:11;;;;;;;;;;;;;;;9.53;93.03027;103084.8;;;;-85
2021/12/15 10:38:29;;;;;;;;;;;;;;;9.56;92.89551;103082.1;;;;-84
2021/12/15 10:43:11;;;;;;;;;;;;;;;9.6;92.80371;103085.8;;;;-85
2021/12/15 10:48:22;;;;;;;;;;;;;;;9.63;92.69043;103091.2;;;;-85
2021/12/15 10:58:21;;;;;;;;;;;;;;;9.68;92.39258;103092.2;;;;-87
2021/12/15 11:00:02;;;;;;;7.2;2.9;;;;;;;;;;;;;-83
2021/12/15 11:03:17;;;;;;;;;;;;;;;9.71;92.2334;103098.6;;;;-84
2021/12/15 11:08:09;;;;;;;;;;;;;;;9.75;92.11133;103097;;;;-84
2021/12/15 11:13:14;;;;;;;;;;;;;;;9.78;91.91797;103098.1;;;;-83
2021/12/15 11:18:14;;;;;;;;;;;;;;;9.81;91.83594;103100.2;;;;-85
2021/12/15 11:23:10;;;;;;;;;;;;;;;9.87;91.71777;103095.6;;;;-85
2021/12/15 11:28:11;;;;;;;;;;;;;;;9.9;91.4043;103094.7;;;;-82
2021/12/15 11:29:48;;;;;;;9.3;2.5;;;;;;;;;;;;;-85
2021/12/15 11:33:16;;;;;;;;;;;;;;;9.92;91.58594;103086.8;;;;-84
2021/12/15 11:39:00;;;;;;;;;;;;;;;9.94;91.45703;103087.5;;;;-83
2021/12/15 11:43:58;;;;;;;;;;;;;;;9.94;91.34766;103089.2;;;;-84
2021/12/15 11:48:51;;;;;;;;;;;;;;;9.94;91.25879;103084.4;;;;-84
2021/12/15 11:53:57;;;;;;;;;;;;;;;9.91;90.66797;103081.4;;;;-84
2021/12/15 11:58:47;;;;;;;;;;;;;;;9.92;90.26367;103081.8;;;;-83
2021/12/15 11:59:53;;;;;;;6.9;2;;;;;;;;;;;;;-84
2021/12/15 12:03:58;;;;;;;;;;;;;;;9.95;90.23633;103074.4;;;;-85
2021/12/15 12:08:56;;;;;;;;;;;;;;;9.97;90.21875;103075.4;;;;-84
2021/12/15 12:13:58;;;;;;;;;;;;;;;9.97;90.15234;103070.5;;;;-84
2021/12/15 12:18:47;;;;;;;;;;;;;;;9.97;89.84375;103069.8;;;;-83
2021/12/15 12:23:49;;;;;;;;;;;;;;;10;89.9043;103067.8;;;;-84
2021/12/15 12:29:00;;;;;;;;;;;;;;;10.01;89.77441;103074;;;;-85
2021/12/15 12:29:50;;;;;;;4.8;1.9;;;;;;;;;;;;;-84
2021/12/15 12:33:53;;;;;;;;;;;;;;;10.02;89.82227;103070.5;;;;-84
2021/12/15 12:39:45;;;;;;;;;;;;;;;10.03;89.85742;103081.9;;;;-87
2021/12/15 12:44:54;;;;;;;;;;;;;;;10.03;89.78027;103086.5;;;;-85
2021/12/15 12:59:44;;;;;;;;;;;;;;;10.03;89.43848;103083.5;;;;-87
2021/12/15 12:59:55;;;;;;;4.1;1.6;;;;;;;;;;;;;-87
2021/12/15 13:04:59;;;;;;;;;;;;;;;10.04;89.38281;103078.5;;;;-86
2021/12/15 13:09:56;;;;;;;;;;;;;;;10.04;89.57031;103080.9;;;;-85
2021/12/15 13:14:45;;;;;;;;;;;;;;;10.03;89.40527;103070.8;;;;-86
2021/12/15 13:19:47;;;;;;;;;;;;;;;10.03;89.27246;103074.4;;;;-85
2021/12/15 13:29:43;;;;;;;;;;;;;;;10.02;89.23828;103069.1;;;;-86
2021/12/15 13:30:01;;;;;;;6;1.8;;;;;;;;;;;;;-86
2021/12/15 13:34:48;;;;;;;;;;;;;;;10.03;89.12988;103070;;;;-86
2021/12/15 13:39:50;;;;;;;;;;;;;;;10.03;89.18457;103075.1;;;;-86
2021/12/15 13:44:45;;;;;;;;;;;;;;;10.03;89.04102;103075;;;;-85
2021/12/15 13:50:07;;;;;;;;;;;;;;;10.03;89.19531;103082;;;;-88
2021/12/15 13:54:57;;;;;;;;;;;;;;;10.02;89.16113;103076.5;;;;-88
2021/12/15 14:00:20;;;;;;;;;;;;;;;;;;;;;
2021/12/15 14:03:36;;;;;;;;;;;;;;;10.02;89.55762;103075.1;;;;-87
2021/12/15 14:08:32;;;;;;;;;;;;;;;10.02;89.58887;103078.6;;;;-87
2021/12/15 14:13:42;;;;;;;;;;;;;;;10.01;89.63086;103083.6;;;;-88
2021/12/15 14:28:24;;;;;;;;;;;;;;;9.97;89.9541;103106.3;;;;-88
2021/12/15 14:29:56;;;;;;;4.1;1.7;;;;;;;;;;;;;-88
2021/12/15 14:33:25;;;;;;;;;;;;;;;9.94;90.00391;103095.4;;;;-88
2021/12/15 14:38:17;;;;;;;;;;;;;;;9.93;89.91211;103106.6;;;;-88
2021/12/15 14:43:28;;;;;;;;;;;;;;;9.91;89.97363;103115.7;;;;-87
2021/12/15 14:48:24;;;;;;;;;;;;;;;9.89;90.12402;103115.5;;;;-87
2021/12/15 14:53:22;;;;;;;;;;;;;;;9.87;90.27539;103120.9;;;;-87
2021/12/15 15:03:39;;;;;;;;;;;;;;;9.81;90.10742;103125.1;;;;-94
2021/12/15 15:08:21;;;;;;;;;;;;;;;9.8;90.31543;103135.6;;;;-86
2021/12/15 15:13:22;;;;;;;;;;;;;;;9.76;90.16406;103133.6;;;;-86
2021/12/15 15:18:25;;;;;;;;;;;;;;;9.75;90.19531;103143;;;;-87
2021/12/15 15:23:15;;;;;;;;;;;;;;;9.72;90.36621;103151.3;;;;-86
2021/12/15 15:28:21;;;;;;;;;;;;;;;9.7;90.39355;103162.6;;;;-86
2021/12/15 15:29:57;;;;;;;4.8;2.1;;;;;;;;;;;;;-87
2021/12/15 15:33:16;;;;;;;;;;;;;;;9.68;90.4248;103166.6;;;;-86
2021/12/15 15:38:18;;;;;;;;;;;;;;;9.65;90.44043;103169.4;;;;-87
2021/12/15 15:43:19;;;;;;;;;;;;;;;9.63;90.40234;103156;;;;-86
2021/12/15 15:48:25;;;;;;;;;;;;;;;9.6;90.60547;103172;;;;-86
2021/12/15 15:53:26;;;;;;;;;;;;;;;9.58;90.59961;103190.6;;;;-85
2021/12/15 15:58:16;;;;;;;;;;;;;;;9.56;90.61816;103164.6;;;;-85
2021/12/15 15:59:58;;;;;;;7.5;2.4;;;;;;;;;;;;;-87
2021/12/15 16:03:15;;;;;;;;;;;;;;;9.53;90.7334;103170.7;;;;-86
2021/12/15 16:08:24;;;;;;;;;;;;;;;9.5;90.78125;103168.2;;;;-85
2021/12/15 16:13:22;;;;;;;;;;;;;;;9.47;90.74414;103174.8;;;;-87
2021/12/15 16:18:28;;;;;;;;;;;;;;;9.44;90.73535;103191.2;;;;-86
2021/12/15 16:23:28;;;;;;;;;;;;;;;9.4;90.71777;103186.7;;;;-86
2021/12/15 16:28:16;;;;;;;;;;;;;;;9.37;90.71094;103183.4;;;;-86
2021/12/15 16:29:58;;;;;;;7.4;3.1;;;;;;;;;;;;;-86
2021/12/15 16:32:51;;;;;;;;;;;;;;;9.34;90.77148;103196;;;;-85
2021/12/15 16:37:52;;;;;;;;;;;;;;;9.3;90.79688;103202.8;;;;-82
2021/12/15 16:42:58;;;;;;;;;;;;;;;9.27;90.82031;103195.6;;;;-83
2021/12/15 16:47:49;;;;;;;;;;;;;;;9.25;90.87109;103209;;;;-87
2021/12/15 16:52:50;;;;;;;;;;;;;;;9.22;90.90039;103210.6;;;;-86
2021/12/15 16:58:16;;;;;;;;;;;;;;;9.19;90.91504;103204.1;;;;-86
2021/12/15 16:59:55;;;;;;;8.5;3.4;;;;;;;;;;;;;-86
2021/12/15 17:02:51;;;;;;;;;;;;;;;9.17;90.88867;103216;;;;-86
2021/12/15 17:08:00;;;;;;;;;;;;;;;9.16;90.93066;103237.3;;;;-85
2021/12/15 17:12:59;;;;;;;;;;;;;;;9.15;90.99512;103229.9;;;;-86
2021/12/15 17:18:03;;;;;;;;;;;;;;;9.14;90.94922;103218.7;;;;-84
2021/12/15 17:22:51;;;;;;;;;;;;;;;9.14;90.95801;103248.1;;;;-86
2021/12/15 17:28:00;;;;;;;;;;;;;;;9.12;90.9873;103230.2;;;;-88
2021/12/15 17:29:58;;;;;;;12.4;4;;;;;;;;;;;;;-83
2021/12/15 17:32:56;;;;;;;;;;;;;;;9.12;90.99902;103234.5;;;;-87
2021/12/15 17:37:47;;;;;;;;;;;;;;;9.12;90.99902;103235.6;;;;-78
2021/12/15 17:43:02;;;;;;;;;;;;;;;9.09;91.01465;103226.6;;;;-89
2021/12/15 17:47:59;;;;;;;;;;;;;;;9.06;90.9873;103243.4;;;;-89
2021/12/15 17:53:03;;;;;;;;;;;;;;;9.03;91.04785;103239.3;;;;-89
2021/12/15 17:58:04;;;;;;;;;;;;;;;8.98;90.99414;103240.7;;;;-89
2021/12/15 18:00:08;;;;;;;10.7;4;;;;;;;;;;;;;-89
2021/12/15 18:02:48;;;;;;;;;;;;;;;8.97;91.07617;103252.2;;;;-88
2021/12/15 18:07:48;;;;;;;;;;;;;;;8.92;90.98047;103250.2;;;;-89
2021/12/15 18:12:52;;;;;;;;;;;;;;;8.88;90.94043;103254.3;;;;-89
2021/12/15 18:18:02;;;;;;;;;;;;;;;8.82;90.92676;103256.1;;;;-89
2021/12/15 18:22:52;;;;;;;;;;;;;;;8.79;90.85352;103254.9;;;;-90
2021/12/15 18:27:51;;;;;;;;;;;;;;;8.72;90.75195;103257.5;;;;-89
2021/12/15 18:30:18;;;;;;;8.1;3.1;;;;;;;;;;;;;-90
2021/12/15 18:40:29;;;;;;;;;;;;;;;8.59;90.73535;103272.6;;;;-88
2021/12/15 18:45:21;;;;;;;;;;;;;;;8.54;90.79102;103261.9;;;;-87
2021/12/15 18:54:33;;;;;;;;;;;;;;;8.48;90.87695;103270.4;;;;-88
2021/12/15 18:59:32;;;;;;;;;;;;;;;8.45;90.92383;103272.3;;;;-88
2021/12/15 19:04:26;;;;;;;;;;;;;;;8.43;90.8457;103273.7;;;;-87
2021/12/15 19:09:26;;;;;;;;;;;;;;;8.4;90.77246;103273.3;;;;-89
2021/12/15 19:19:35;;;;;;;;;;;;;;;8.35;90.84863;103294.2;;;;-89
2021/12/15 19:30:19;;;;;;;6.8;2.9;;;;;;;;;;;;;-89
2021/12/15 19:38:59;;;;;;;;;;;;;;;8.21;90.93164;103302.8;;;;-87
2021/12/15 19:43:47;;;;;;;;;;;;;;;8.17;90.76855;103308.2;;;;-88
2021/12/15 19:49:03;;;;;;;;;;;;;;;8.14;90.78516;103304.8;;;;-87
2021/12/15 19:53:59;;;;;;;;;;;;;;;8.12;90.85742;103321.5;;;;-87
2021/12/15 20:13:13;;;;;;;;;;;;;;;8.04;90.99414;103331.3;;;;-89
2021/12/15 20:22:33;;;;;;;;;;;;;;;7.98;91.00488;103332.4;;;;-90
2021/12/15 20:27:30;;;;;;;;;;;;;;;7.95;91.13965;103341.8;;;;-88
2021/12/15 20:30:04;;;;;;;10.8;4.2;;;;;;;;;;;;;-86
2021/12/15 20:32:28;;;;;;;;;;;;;;;7.91;91.18652;103333.9;;;;-88
2021/12/15 20:37:42;;;;;;;;;;;;;;;7.87;91.2207;103339.2;;;;-88
2021/12/15 20:42:36;;;;;;;;;;;;;;;7.83;91.22461;103342.9;;;;-87
2021/12/15 20:47:36;;;;;;;;;;;;;;;7.76;91.20898;103353.9;;;;-86
2021/12/15 20:52:32;;;;;;;;;;;;;;;7.71;91.18848;103349.3;;;;-88
2021/12/15 21:02:21;;;;;;;;;;;;;;;7.59;91.29492;103357;;;;-88
2021/12/15 21:07:28;;;;;;;;;;;;;;;7.54;91.16309;103363.7;;;;-86
2021/12/15 21:17:54;;;;;;;;;;;;;;;7.42;91.37988;103363.6;;;;-87
2021/12/15 21:22:43;;;;;;;;;;;;;;;7.38;91.27344;103363.5;;;;-87
2021/12/15 21:32:31;;;;;;;;;;;;;;;7.28;91.40527;103371.8;;;;-88
2021/12/15 21:37:30;;;;;;;;;;;;;;;7.23;91.28418;103372.7;;;;-88
2021/12/15 21:42:36;;;;;;;;;;;;;;;7.18;91.31836;103375.1;;;;-87
2021/12/15 21:47:32;;;;;;;;;;;;;;;7.14;91.3418;103385.7;;;;-87
2021/12/15 21:52:43;;;;;;;;;;;;;;;7.09;91.35254;103386;;;;-88
2021/12/15 21:57:32;;;;;;;;;;;;;;;7.04;91.48535;103387.9;;;;-88
2021/12/15 21:59:56;;;;;;;11.7;4.9;;;;;;;;;;;;;-88
2021/12/15 22:02:35;;;;;;;;;;;;;;;6.98;91.5918;103387.6;;;;-88
2021/12/15 22:07:33;;;;;;;;;;;;;;;6.98;91.75781;103392.8;;;;-87
2021/12/15 22:12:31;;;;;;;;;;;;;;;6.92;91.53711;103384.8;;;;-87
2021/12/15 22:17:35;;;;;;;;;;;;;;;6.9;91.62891;103382.3;;;;-86
2021/12/15 22:22:31;;;;;;;;;;;;;;;6.82;91.65723;103393.2;;;;-88
2021/12/15 22:27:30;;;;;;;;;;;;;;;6.77;91.79004;103398.6;;;;-87
2021/12/15 22:29:51;;;;;;;12.7;5.2;;;;;;;;;;;;;-88
2021/12/15 22:32:34;;;;;;;;;;;;;;;6.74;91.88086;103398.6;;;;-87
2021/12/15 22:37:43;;;;;;;;;;;;;;;6.72;91.82227;103403.1;;;;-88
2021/12/15 22:42:38;;;;;;;;;;;;;;;6.68;91.83691;103404.8;;;;-87
2021/12/15 22:47:33;;;;;;;;;;;;;;;6.65;91.7959;103410.9;;;;-87
2021/12/15 22:52:30;;;;;;;;;;;;;;;6.6;91.91602;103415.8;;;;-87
2021/12/15 22:57:33;;;;;;;;;;;;;;;6.54;91.96094;103419.6;;;;-87
2021/12/15 22:59:50;;;;;;;11.1;4.7;;;;;;;;;;;;;-87
2021/12/15 23:02:32;;;;;;;;;;;;;;;6.51;91.93066;103419.2;;;;-87
2021/12/15 23:07:32;;;;;;;;;;;;;;;6.47;91.90137;103414.4;;;;-87
2021/12/15 23:12:30;;;;;;;;;;;;;;;6.4;91.85352;103418.2;;;;-85
2021/12/15 23:17:32;;;;;;;;;;;;;;;6.34;91.90723;103428.7;;;;-87
2021/12/15 23:22:32;;;;;;;;;;;;;;;6.28;91.9248;103427.5;;;;-87
2021/12/15 23:27:39;;;;;;;;;;;;;;;6.22;91.92383;103423.6;;;;-87
2021/12/15 23:29:47;;;;;;;9.7;4.6;;;;;;;;;;;;;-84
2021/12/15 23:32:45;;;;;;;;;;;;;;;6.14;91.87598;103425.9;;;;-88
2021/12/15 23:37:30;;;;;;;;;;;;;;;6.1;91.94043;103433.3;;;;-89
